sensor_id;sensor_type;location;lat;lon;timestamp;temperature;humidity
73955;DHT22;62306;52.516;13.290;2024-03-06T00:00:50;3.70;99.90
73955;DHT22;62306;52.516;13.290;2024-03-06T00:03:17;3.70;99.90
73955;DHT22;62306;52.516;13.290;2024-03-06T00:05:43;3.50;99.90
73955;DHT22;62306;52.516;13.290;2024-03-06T00:08:12;3.50;99.90
73955;DHT22;62306;52.516;13.290;2024-03-06T00:10:40;3.50;99.90
73955;DHT22;62306;52.516;13.290;2024-03-06T00:13:07;3.40;99.90
73955;DHT22;62306;52.516;13.290;2024-03-06T00:15:34;3.40;99.90
73955;DHT22;62306;52.516;13.290;2024-03-06T00:18:01;3.50;99.90
73955;DHT22;62306;52.516;13.290;2024-03-06T00:20:29;3.50;99.90
73955;DHT22;62306;52.516;13.290;2024-03-06T00:22:56;3.50;99.90
73955;DHT22;62306;52.516;13.290;2024-03-06T00:25:26;3.50;99.90
73955;DHT22;62306;52.516;13.290;2024-03-06T00:27:53;3.50;99.90
73955;DHT22;62306;52.516;13.290;2024-03-06T00:30:20;3.50;99.90
73955;DHT22;62306;52.516;13.290;2024-03-06T00:32:47;3.50;99.90
73955;DHT22;62306;52.516;13.290;2024-03-06T00:35:14;3.50;99.90
73955;DHT22;62306;52.516;13.290;2024-03-06T00:37:41;3.50;99.90
73955;DHT22;62306;52.516;13.290;2024-03-06T00:40:09;3.50;99.90
73955;DHT22;62306;52.516;13.290;2024-03-06T00:42:38;3.50;99.90
73955;DHT22;62306;52.516;13.290;2024-03-06T00:45:07;3.50;99.90
73955;DHT22;62306;52.516;13.290;2024-03-06T00:47:34;3.50;99.90
73955;DHT22;62306;52.516;13.290;2024-03-06T00:50:01;3.50;99.90
73955;DHT22;62306;52.516;13.290;2024-03-06T00:52:28;3.50;99.90
73955;DHT22;62306;52.516;13.290;2024-03-06T00:54:55;3.50;99.90
73955;DHT22;62306;52.516;13.290;2024-03-06T00:57:22;3.50;99.90
73955;DHT22;62306;52.516;13.290;2024-03-06T00:59:50;3.50;99.90
73955;DHT22;62306;52.516;13.290;2024-03-06T01:02:17;3.50;99.90
73955;DHT22;62306;52.516;13.290;2024-03-06T01:04:44;3.50;99.90
73955;DHT22;62306;52.516;13.290;2024-03-06T01:07:11;3.40;99.90
73955;DHT22;62306;52.516;13.290;2024-03-06T01:09:37;3.40;99.90
73955;DHT22;62306;52.516;13.290;2024-03-06T01:12:05;3.30;99.90
73955;DHT22;62306;52.516;13.290;2024-03-06T01:14:32;3.30;99.90
73955;DHT22;62306;52.516;13.290;2024-03-06T01:17:00;3.20;99.90
73955;DHT22;62306;52.516;13.290;2024-03-06T01:19:27;3.20;99.90
73955;DHT22;62306;52.516;13.290;2024-03-06T01:21:54;3.30;99.90
73955;DHT22;62306;52.516;13.290;2024-03-06T01:24:21;3.20;99.90
73955;DHT22;62306;52.516;13.290;2024-03-06T01:26:48;3.20;99.90
73955;DHT22;62306;52.516;13.290;2024-03-06T01:29:15;3.20;99.90
73955;DHT22;62306;52.516;13.290;2024-03-06T01:31:43;3.20;99.90
73955;DHT22;62306;52.516;13.290;2024-03-06T01:34:13;3.20;99.90
73955;DHT22;62306;52.516;13.290;2024-03-06T01:36:40;3.20;99.90
73955;DHT22;62306;52.516;13.290;2024-03-06T01:39:07;3.20;99.90
73955;DHT22;62306;52.516;13.290;2024-03-06T01:41:35;3.20;99.90
73955;DHT22;62306;52.516;13.290;2024-03-06T01:44:02;3.20;99.90
73955;DHT22;62306;52.516;13.290;2024-03-06T01:46:30;3.20;99.90
73955;DHT22;62306;52.516;13.290;2024-03-06T01:48:56;3.20;99.90
73955;DHT22;62306;52.516;13.290;2024-03-06T01:51:25;3.10;99.90
73955;DHT22;62306;52.516;13.290;2024-03-06T01:53:52;3.10;99.90
73955;DHT22;62306;52.516;13.290;2024-03-06T01:56:19;3.10;99.90
73955;DHT22;62306;52.516;13.290;2024-03-06T01:58:47;3.10;99.90
73955;DHT22;62306;52.516;13.290;2024-03-06T02:01:15;3.10;99.90
73955;DHT22;62306;52.516;13.290;2024-03-06T02:03:43;3.10;99.90
73955;DHT22;62306;52.516;13.290;2024-03-06T02:06:10;3.00;99.90
73955;DHT22;62306;52.516;13.290;2024-03-06T02:08:40;3.00;99.90
73955;DHT22;62306;52.516;13.290;2024-03-06T02:11:07;3.00;99.90
73955;DHT22;62306;52.516;13.290;2024-03-06T02:13:34;2.90;99.90
73955;DHT22;62306;52.516;13.290;2024-03-06T02:16:01;2.90;99.90
73955;DHT22;62306;52.516;13.290;2024-03-06T02:18:28;2.90;99.90
73955;DHT22;62306;52.516;13.290;2024-03-06T02:20:56;2.80;99.90
73955;DHT22;62306;52.516;13.290;2024-03-06T02:23:23;2.80;99.90
73955;DHT22;62306;52.516;13.290;2024-03-06T02:25:50;2.80;99.90
73955;DHT22;62306;52.516;13.290;2024-03-06T02:28:17;2.80;99.90
73955;DHT22;62306;52.516;13.290;2024-03-06T02:30:44;2.80;99.90
73955;DHT22;62306;52.516;13.290;2024-03-06T02:33:14;2.80;99.90
73955;DHT22;62306;52.516;13.290;2024-03-06T02:35:40;2.80;99.90
73955;DHT22;62306;52.516;13.290;2024-03-06T02:38:11;2.80;99.90
73955;DHT22;62306;52.516;13.290;2024-03-06T02:40:38;2.80;99.90
73955;DHT22;62306;52.516;13.290;2024-03-06T02:43:05;2.80;99.90
73955;DHT22;62306;52.516;13.290;2024-03-06T02:45:32;2.90;99.90
73955;DHT22;62306;52.516;13.290;2024-03-06T02:47:59;2.90;99.90
73955;DHT22;62306;52.516;13.290;2024-03-06T02:50:26;2.90;99.90
73955;DHT22;62306;52.516;13.290;2024-03-06T02:52:53;2.90;99.90
73955;DHT22;62306;52.516;13.290;2024-03-06T02:55:22;2.90;99.90
73955;DHT22;62306;52.516;13.290;2024-03-06T02:57:50;2.90;99.90
73955;DHT22;62306;52.516;13.290;2024-03-06T03:00:17;2.90;99.90
73955;DHT22;62306;52.516;13.290;2024-03-06T03:02:44;2.80;99.90
73955;DHT22;62306;52.516;13.290;2024-03-06T03:05:11;2.80;99.90
73955;DHT22;62306;52.516;13.290;2024-03-06T03:07:38;2.80;99.90
73955;DHT22;62306;52.516;13.290;2024-03-06T03:10:06;2.70;99.90
73955;DHT22;62306;52.516;13.290;2024-03-06T03:12:38;2.80;99.90
73955;DHT22;62306;52.516;13.290;2024-03-06T03:15:06;2.80;99.90
73955;DHT22;62306;52.516;13.290;2024-03-06T03:17:33;2.70;99.90
73955;DHT22;62306;52.516;13.290;2024-03-06T03:20:00;2.70;99.90
73955;DHT22;62306;52.516;13.290;2024-03-06T03:22:31;2.70;99.90
73955;DHT22;62306;52.516;13.290;2024-03-06T03:24:58;2.70;99.90
73955;DHT22;62306;52.516;13.290;2024-03-06T03:27:25;2.70;99.90
73955;DHT22;62306;52.516;13.290;2024-03-06T03:29:53;2.60;99.90
73955;DHT22;62306;52.516;13.290;2024-03-06T03:32:20;2.60;99.90
73955;DHT22;62306;52.516;13.290;2024-03-06T03:34:47;2.60;99.90
73955;DHT22;62306;52.516;13.290;2024-03-06T03:37:14;2.60;99.90
73955;DHT22;62306;52.516;13.290;2024-03-06T03:39:42;2.50;99.90
73955;DHT22;62306;52.516;13.290;2024-03-06T03:42:10;2.50;99.90
73955;DHT22;62306;52.516;13.290;2024-03-06T03:44:36;2.50;99.90
73955;DHT22;62306;52.516;13.290;2024-03-06T03:47:05;2.50;99.90
73955;DHT22;62306;52.516;13.290;2024-03-06T03:49:32;2.40;99.90
73955;DHT22;62306;52.516;13.290;2024-03-06T03:51:59;2.40;99.90
73955;DHT22;62306;52.516;13.290;2024-03-06T03:54:26;2.40;99.90
73955;DHT22;62306;52.516;13.290;2024-03-06T03:56:53;2.50;99.90
73955;DHT22;62306;52.516;13.290;2024-03-06T03:59:20;2.50;99.90
73955;DHT22;62306;52.516;13.290;2024-03-06T04:01:47;2.50;99.90
73955;DHT22;62306;52.516;13.290;2024-03-06T04:04:15;2.50;99.90
73955;DHT22;62306;52.516;13.290;2024-03-06T04:06:42;2.40;99.90
73955;DHT22;62306;52.516;13.290;2024-03-06T04:09:09;2.40;99.90
73955;DHT22;62306;52.516;13.290;2024-03-06T04:11:36;2.50;99.90
73955;DHT22;62306;52.516;13.290;2024-03-06T04:14:03;2.40;99.90
73955;DHT22;62306;52.516;13.290;2024-03-06T04:16:32;2.40;99.90
73955;DHT22;62306;52.516;13.290;2024-03-06T04:18:58;2.50;99.90
73955;DHT22;62306;52.516;13.290;2024-03-06T04:21:27;2.50;99.90
73955;DHT22;62306;52.516;13.290;2024-03-06T04:23:55;2.50;99.90
73955;DHT22;62306;52.516;13.290;2024-03-06T04:26:21;2.40;99.90
73955;DHT22;62306;52.516;13.290;2024-03-06T04:28:48;2.40;99.90
73955;DHT22;62306;52.516;13.290;2024-03-06T04:31:15;2.40;99.90
73955;DHT22;62306;52.516;13.290;2024-03-06T04:33:42;2.40;99.90
73955;DHT22;62306;52.516;13.290;2024-03-06T04:36:10;2.40;99.90
73955;DHT22;62306;52.516;13.290;2024-03-06T04:38:38;2.40;99.90
73955;DHT22;62306;52.516;13.290;2024-03-06T04:41:05;2.40;99.90
73955;DHT22;62306;52.516;13.290;2024-03-06T04:43:32;2.40;99.90
73955;DHT22;62306;52.516;13.290;2024-03-06T04:46:00;2.30;99.90
73955;DHT22;62306;52.516;13.290;2024-03-06T04:48:27;2.30;99.90
73955;DHT22;62306;52.516;13.290;2024-03-06T04:50:53;2.30;99.90
73955;DHT22;62306;52.516;13.290;2024-03-06T04:53:20;2.30;99.90
73955;DHT22;62306;52.516;13.290;2024-03-06T04:55:49;2.20;99.90
73955;DHT22;62306;52.516;13.290;2024-03-06T04:58:15;2.30;99.90
73955;DHT22;62306;52.516;13.290;2024-03-06T05:00:42;2.20;99.90
73955;DHT22;62306;52.516;13.290;2024-03-06T05:03:10;2.20;99.90
73955;DHT22;62306;52.516;13.290;2024-03-06T05:05:36;2.20;99.90
73955;DHT22;62306;52.516;13.290;2024-03-06T05:08:05;2.20;99.90
73955;DHT22;62306;52.516;13.290;2024-03-06T05:10:33;2.20;99.90
73955;DHT22;62306;52.516;13.290;2024-03-06T05:13:02;2.10;99.90
73955;DHT22;62306;52.516;13.290;2024-03-06T05:15:29;2.10;99.90
73955;DHT22;62306;52.516;13.290;2024-03-06T05:17:56;2.10;99.90
73955;DHT22;62306;52.516;13.290;2024-03-06T05:20:22;2.10;99.90
73955;DHT22;62306;52.516;13.290;2024-03-06T05:22:49;2.10;99.90
73955;DHT22;62306;52.516;13.290;2024-03-06T05:25:16;2.10;99.90
73955;DHT22;62306;52.516;13.290;2024-03-06T05:27:43;2.10;99.90
73955;DHT22;62306;52.516;13.290;2024-03-06T05:30:12;2.00;99.90
73955;DHT22;62306;52.516;13.290;2024-03-06T05:32:40;2.10;99.90
73955;DHT22;62306;52.516;13.290;2024-03-06T05:35:08;2.20;99.90
73955;DHT22;62306;52.516;13.290;2024-03-06T05:37:35;3.20;99.90
73955;DHT22;62306;52.516;13.290;2024-03-06T05:40:03;2.40;99.90
73955;DHT22;62306;52.516;13.290;2024-03-06T05:42:31;2.30;99.90
73955;DHT22;62306;52.516;13.290;2024-03-06T05:44:58;2.30;99.90
73955;DHT22;62306;52.516;13.290;2024-03-06T05:47:31;2.40;99.90
73955;DHT22;62306;52.516;13.290;2024-03-06T05:49:59;2.40;99.90
73955;DHT22;62306;52.516;13.290;2024-03-06T05:52:26;2.50;99.90
73955;DHT22;62306;52.516;13.290;2024-03-06T05:54:53;2.40;99.90
73955;DHT22;62306;52.516;13.290;2024-03-06T05:57:20;2.60;99.90
73955;DHT22;62306;52.516;13.290;2024-03-06T05:59:46;2.50;99.90
73955;DHT22;62306;52.516;13.290;2024-03-06T06:02:14;2.80;99.90
73955;DHT22;62306;52.516;13.290;2024-03-06T06:04:43;2.50;99.90
73955;DHT22;62306;52.516;13.290;2024-03-06T06:07:10;2.50;99.90
73955;DHT22;62306;52.516;13.290;2024-03-06T06:09:37;2.80;99.90
73955;DHT22;62306;52.516;13.290;2024-03-06T06:12:04;2.80;99.90
73955;DHT22;62306;52.516;13.290;2024-03-06T06:14:31;2.70;99.90
73955;DHT22;62306;52.516;13.290;2024-03-06T06:16:58;2.80;99.90
73955;DHT22;62306;52.516;13.290;2024-03-06T06:19:25;2.70;99.90
73955;DHT22;62306;52.516;13.290;2024-03-06T06:21:54;3.10;99.90
73955;DHT22;62306;52.516;13.290;2024-03-06T06:24:21;3.10;99.90
73955;DHT22;62306;52.516;13.290;2024-03-06T06:26:48;3.10;99.90
73955;DHT22;62306;52.516;13.290;2024-03-06T06:29:15;3.20;99.90
73955;DHT22;62306;52.516;13.290;2024-03-06T06:31:42;3.30;99.90
73955;DHT22;62306;52.516;13.290;2024-03-06T06:34:09;3.40;99.90
73955;DHT22;62306;52.516;13.290;2024-03-06T06:36:37;3.40;99.90
73955;DHT22;62306;52.516;13.290;2024-03-06T06:39:07;3.40;99.90
73955;DHT22;62306;52.516;13.290;2024-03-06T06:41:36;3.50;99.90
73955;DHT22;62306;52.516;13.290;2024-03-06T06:44:03;3.50;99.90
73955;DHT22;62306;52.516;13.290;2024-03-06T06:46:30;3.30;99.90
73955;DHT22;62306;52.516;13.290;2024-03-06T06:48:57;3.40;99.90
73955;DHT22;62306;52.516;13.290;2024-03-06T06:51:24;3.70;99.90
73955;DHT22;62306;52.516;13.290;2024-03-06T06:53:51;3.80;99.90
73955;DHT22;62306;52.516;13.290;2024-03-06T06:56:19;4.10;99.90
73955;DHT22;62306;52.516;13.290;2024-03-06T06:58:49;4.00;99.90
73955;DHT22;62306;52.516;13.290;2024-03-06T07:01:16;4.10;99.90
73955;DHT22;62306;52.516;13.290;2024-03-06T07:03:44;4.30;99.90
73955;DHT22;62306;52.516;13.290;2024-03-06T07:06:10;4.10;99.90
73955;DHT22;62306;52.516;13.290;2024-03-06T07:08:37;4.00;99.90
73955;DHT22;62306;52.516;13.290;2024-03-06T07:11:04;4.20;99.90
73955;DHT22;62306;52.516;13.290;2024-03-06T07:13:33;4.30;99.90
73955;DHT22;62306;52.516;13.290;2024-03-06T07:16:00;4.50;99.90
73955;DHT22;62306;52.516;13.290;2024-03-06T07:18:29;4.70;99.90
73955;DHT22;62306;52.516;13.290;2024-03-06T07:20:55;4.80;99.90
73955;DHT22;62306;52.516;13.290;2024-03-06T07:23:22;5.00;99.90
73955;DHT22;62306;52.516;13.290;2024-03-06T07:25:49;5.10;99.90
73955;DHT22;62306;52.516;13.290;2024-03-06T07:28:16;5.50;99.90
73955;DHT22;62306;52.516;13.290;2024-03-06T07:30:45;5.20;99.90
73955;DHT22;62306;52.516;13.290;2024-03-06T07:33:12;5.60;99.90
73955;DHT22;62306;52.516;13.290;2024-03-06T07:35:39;5.50;99.90
73955;DHT22;62306;52.516;13.290;2024-03-06T07:38:06;5.60;99.90
73955;DHT22;62306;52.516;13.290;2024-03-06T07:40:33;5.80;99.90
73955;DHT22;62306;52.516;13.290;2024-03-06T07:43:00;5.90;99.90
73955;DHT22;62306;52.516;13.290;2024-03-06T07:45:27;6.10;99.90
73955;DHT22;62306;52.516;13.290;2024-03-06T07:47:56;6.20;99.90
73955;DHT22;62306;52.516;13.290;2024-03-06T07:50:23;6.10;99.90
73955;DHT22;62306;52.516;13.290;2024-03-06T07:52:50;6.10;99.90
73955;DHT22;62306;52.516;13.290;2024-03-06T07:55:17;6.00;99.90
73955;DHT22;62306;52.516;13.290;2024-03-06T07:57:47;6.30;99.90
73955;DHT22;62306;52.516;13.290;2024-03-06T08:00:14;6.40;99.90
73955;DHT22;62306;52.516;13.290;2024-03-06T08:02:45;6.30;99.90
73955;DHT22;62306;52.516;13.290;2024-03-06T08:05:17;6.10;99.90
73955;DHT22;62306;52.516;13.290;2024-03-06T08:07:44;6.00;99.90
73955;DHT22;62306;52.516;13.290;2024-03-06T08:10:13;6.00;99.90
73955;DHT22;62306;52.516;13.290;2024-03-06T08:12:40;6.10;99.90
73955;DHT22;62306;52.516;13.290;2024-03-06T08:15:09;6.30;99.90
73955;DHT22;62306;52.516;13.290;2024-03-06T08:17:38;6.40;99.90
73955;DHT22;62306;52.516;13.290;2024-03-06T08:20:07;6.40;99.90
73955;DHT22;62306;52.516;13.290;2024-03-06T08:22:38;6.50;99.90
73955;DHT22;62306;52.516;13.290;2024-03-06T08:25:06;6.80;99.90
73955;DHT22;62306;52.516;13.290;2024-03-06T08:27:34;6.80;99.90
73955;DHT22;62306;52.516;13.290;2024-03-06T08:30:01;7.10;99.90
73955;DHT22;62306;52.516;13.290;2024-03-06T08:32:30;7.20;99.90
73955;DHT22;62306;52.516;13.290;2024-03-06T08:34:57;7.30;99.90
73955;DHT22;62306;52.516;13.290;2024-03-06T08:37:24;7.40;99.90
73955;DHT22;62306;52.516;13.290;2024-03-06T08:39:52;7.50;99.90
73955;DHT22;62306;52.516;13.290;2024-03-06T08:42:19;7.60;99.90
73955;DHT22;62306;52.516;13.290;2024-03-06T08:44:46;7.90;99.90
73955;DHT22;62306;52.516;13.290;2024-03-06T08:47:13;7.90;99.90
73955;DHT22;62306;52.516;13.290;2024-03-06T08:49:40;8.10;99.90
73955;DHT22;62306;52.516;13.290;2024-03-06T08:52:08;8.10;99.90
73955;DHT22;62306;52.516;13.290;2024-03-06T08:54:35;7.90;99.90
73955;DHT22;62306;52.516;13.290;2024-03-06T08:57:04;7.60;99.90
73955;DHT22;62306;52.516;13.290;2024-03-06T08:59:31;7.60;99.90
73955;DHT22;62306;52.516;13.290;2024-03-06T09:01:58;7.60;99.90
73955;DHT22;62306;52.516;13.290;2024-03-06T09:04:38;7.80;99.90
73955;DHT22;62306;52.516;13.290;2024-03-06T09:07:05;7.50;99.90
73955;DHT22;62306;52.516;13.290;2024-03-06T09:09:32;7.40;99.90
73955;DHT22;62306;52.516;13.290;2024-03-06T09:11:59;7.60;99.90
73955;DHT22;62306;52.516;13.290;2024-03-06T09:14:28;7.80;99.90
73955;DHT22;62306;52.516;13.290;2024-03-06T09:16:55;8.00;99.90
73955;DHT22;62306;52.516;13.290;2024-03-06T09:19:22;8.10;99.90
73955;DHT22;62306;52.516;13.290;2024-03-06T09:21:49;8.50;99.90
73955;DHT22;62306;52.516;13.290;2024-03-06T09:24:16;8.50;99.90
73955;DHT22;62306;52.516;13.290;2024-03-06T09:26:43;8.60;99.90
73955;DHT22;62306;52.516;13.290;2024-03-06T09:29:10;9.00;99.90
73955;DHT22;62306;52.516;13.290;2024-03-06T09:31:39;9.30;99.90
73955;DHT22;62306;52.516;13.290;2024-03-06T09:34:05;9.20;99.90
73955;DHT22;62306;52.516;13.290;2024-03-06T09:36:32;9.50;99.90
73955;DHT22;62306;52.516;13.290;2024-03-06T09:39:00;9.70;99.90
73955;DHT22;62306;52.516;13.290;2024-03-06T09:41:29;9.70;99.90
73955;DHT22;62306;52.516;13.290;2024-03-06T09:43:56;9.50;99.90
73955;DHT22;62306;52.516;13.290;2024-03-06T09:46:23;9.40;99.90
73955;DHT22;62306;52.516;13.290;2024-03-06T09:48:51;9.10;99.90
73955;DHT22;62306;52.516;13.290;2024-03-06T09:51:18;8.80;99.90
73955;DHT22;62306;52.516;13.290;2024-03-06T09:53:46;8.40;99.90
73955;DHT22;62306;52.516;13.290;2024-03-06T09:56:15;8.30;99.90
73955;DHT22;62306;52.516;13.290;2024-03-06T09:58:42;8.50;99.90
73955;DHT22;62306;52.516;13.290;2024-03-06T10:01:09;8.60;99.90
73955;DHT22;62306;52.516;13.290;2024-03-06T10:03:37;8.70;99.90
73955;DHT22;62306;52.516;13.290;2024-03-06T10:06:07;8.60;99.90
73955;DHT22;62306;52.516;13.290;2024-03-06T10:08:34;8.40;99.90
73955;DHT22;62306;52.516;13.290;2024-03-06T10:11:03;8.50;99.90
73955;DHT22;62306;52.516;13.290;2024-03-06T10:13:31;8.10;99.90
73955;DHT22;62306;52.516;13.290;2024-03-06T10:16:00;7.90;99.90
73955;DHT22;62306;52.516;13.290;2024-03-06T10:18:27;7.80;99.90
73955;DHT22;62306;52.516;13.290;2024-03-06T10:20:54;7.60;99.90
73955;DHT22;62306;52.516;13.290;2024-03-06T10:23:23;7.50;99.90
73955;DHT22;62306;52.516;13.290;2024-03-06T10:25:50;7.50;99.90
73955;DHT22;62306;52.516;13.290;2024-03-06T10:28:18;7.50;99.90
73955;DHT22;62306;52.516;13.290;2024-03-06T10:30:45;7.60;99.90
73955;DHT22;62306;52.516;13.290;2024-03-06T10:33:13;7.70;99.90
73955;DHT22;62306;52.516;13.290;2024-03-06T10:35:40;7.90;99.90
73955;DHT22;62306;52.516;13.290;2024-03-06T10:38:08;8.20;99.90
73955;DHT22;62306;52.516;13.290;2024-03-06T10:40:39;8.20;99.90
73955;DHT22;62306;52.516;13.290;2024-03-06T10:43:07;8.50;99.90
73955;DHT22;62306;52.516;13.290;2024-03-06T10:45:40;8.80;99.90
73955;DHT22;62306;52.516;13.290;2024-03-06T10:48:09;9.10;99.90
73955;DHT22;62306;52.516;13.290;2024-03-06T10:50:39;8.90;99.90
73955;DHT22;62306;52.516;13.290;2024-03-06T10:53:09;8.90;99.90
73955;DHT22;62306;52.516;13.290;2024-03-06T10:55:38;8.90;99.90
73955;DHT22;62306;52.516;13.290;2024-03-06T10:58:06;9.00;99.90
73955;DHT22;62306;52.516;13.290;2024-03-06T11:00:36;9.10;99.90
73955;DHT22;62306;52.516;13.290;2024-03-06T11:03:05;9.50;99.90
73955;DHT22;62306;52.516;13.290;2024-03-06T11:05:34;9.70;99.90
73955;DHT22;62306;52.516;13.290;2024-03-06T11:08:01;9.70;99.90
73955;DHT22;62306;52.516;13.290;2024-03-06T11:10:32;9.60;99.90
73955;DHT22;62306;52.516;13.290;2024-03-06T11:13:00;9.50;99.90
73955;DHT22;62306;52.516;13.290;2024-03-06T11:15:28;9.60;99.90
73955;DHT22;62306;52.516;13.290;2024-03-06T11:17:55;9.50;99.90
73955;DHT22;62306;52.516;13.290;2024-03-06T11:20:23;9.10;99.90
73955;DHT22;62306;52.516;13.290;2024-03-06T11:23:04;9.10;99.90
73955;DHT22;62306;52.516;13.290;2024-03-06T11:26:02;8.70;99.90
73955;DHT22;62306;52.516;13.290;2024-03-06T11:28:32;8.90;99.90
73955;DHT22;62306;52.516;13.290;2024-03-06T11:31:01;9.10;99.70
73955;DHT22;62306;52.516;13.290;2024-03-06T11:33:34;8.90;99.90
73955;DHT22;62306;52.516;13.290;2024-03-06T11:36:16;8.80;99.90
73955;DHT22;62306;52.516;13.290;2024-03-06T11:38:50;8.80;99.90
73955;DHT22;62306;52.516;13.290;2024-03-06T11:41:18;8.80;99.90
73955;DHT22;62306;52.516;13.290;2024-03-06T11:43:48;8.70;99.90
73955;DHT22;62306;52.516;13.290;2024-03-06T11:46:18;8.60;99.90
73955;DHT22;62306;52.516;13.290;2024-03-06T11:48:52;8.60;99.90
73955;DHT22;62306;52.516;13.290;2024-03-06T11:51:20;8.50;99.90
73955;DHT22;62306;52.516;13.290;2024-03-06T11:53:49;8.50;99.90
73955;DHT22;62306;52.516;13.290;2024-03-06T11:56:17;8.50;99.90
73955;DHT22;62306;52.516;13.290;2024-03-06T11:58:46;8.60;99.90
73955;DHT22;62306;52.516;13.290;2024-03-06T12:01:13;8.70;99.90
73955;DHT22;62306;52.516;13.290;2024-03-06T12:03:41;8.90;99.90
73955;DHT22;62306;52.516;13.290;2024-03-06T12:06:09;9.20;99.90
73955;DHT22;62306;52.516;13.290;2024-03-06T12:08:36;9.50;99.90
73955;DHT22;62306;52.516;13.290;2024-03-06T12:11:04;9.70;99.90
73955;DHT22;62306;52.516;13.290;2024-03-06T12:13:31;9.60;99.60
73955;DHT22;62306;52.516;13.290;2024-03-06T12:16:04;9.40;99.90
73955;DHT22;62306;52.516;13.290;2024-03-06T12:18:31;9.50;99.90
73955;DHT22;62306;52.516;13.290;2024-03-06T12:21:01;9.70;99.50
73955;DHT22;62306;52.516;13.290;2024-03-06T12:23:28;10.00;99.00
73955;DHT22;62306;52.516;13.290;2024-03-06T12:26:05;9.90;99.00
73955;DHT22;62306;52.516;13.290;2024-03-06T12:28:32;10.00;98.80
73955;DHT22;62306;52.516;13.290;2024-03-06T12:31:02;10.10;98.50
73955;DHT22;62306;52.516;13.290;2024-03-06T12:33:29;10.20;98.50
73955;DHT22;62306;52.516;13.290;2024-03-06T12:36:03;10.30;98.40
73955;DHT22;62306;52.516;13.290;2024-03-06T12:38:30;10.20;98.40
73955;DHT22;62306;52.516;13.290;2024-03-06T12:40:58;10.20;98.80
73955;DHT22;62306;52.516;13.290;2024-03-06T12:43:25;10.20;98.70
73955;DHT22;62306;52.516;13.290;2024-03-06T12:45:52;10.30;98.50
73955;DHT22;62306;52.516;13.290;2024-03-06T12:48:21;10.30;98.30
73955;DHT22;62306;52.516;13.290;2024-03-06T12:50:48;10.20;98.20
73955;DHT22;62306;52.516;13.290;2024-03-06T12:53:17;9.90;98.90
73955;DHT22;62306;52.516;13.290;2024-03-06T12:55:44;9.70;99.70
73955;DHT22;62306;52.516;13.290;2024-03-06T12:58:12;9.70;99.70
73955;DHT22;62306;52.516;13.290;2024-03-06T13:00:39;9.60;99.90
73955;DHT22;62306;52.516;13.290;2024-03-06T13:03:07;9.50;99.90
73955;DHT22;62306;52.516;13.290;2024-03-06T13:05:35;9.60;99.90
73955;DHT22;62306;52.516;13.290;2024-03-06T13:08:02;9.50;99.90
73955;DHT22;62306;52.516;13.290;2024-03-06T13:10:29;9.40;99.90
73955;DHT22;62306;52.516;13.290;2024-03-06T13:12:57;9.40;99.90
73955;DHT22;62306;52.516;13.290;2024-03-06T13:15:24;9.50;99.90
73955;DHT22;62306;52.516;13.290;2024-03-06T13:17:51;9.80;99.90
73955;DHT22;62306;52.516;13.290;2024-03-06T13:20:18;10.20;99.50
73955;DHT22;62306;52.516;13.290;2024-03-06T13:22:46;10.20;99.20
73955;DHT22;62306;52.516;13.290;2024-03-06T13:25:13;10.20;99.10
73955;DHT22;62306;52.516;13.290;2024-03-06T13:27:40;10.00;99.60
73955;DHT22;62306;52.516;13.290;2024-03-06T13:30:08;9.70;99.90
73955;DHT22;62306;52.516;13.290;2024-03-06T13:32:35;9.60;99.90
73955;DHT22;62306;52.516;13.290;2024-03-06T13:35:03;9.60;99.90
73955;DHT22;62306;52.516;13.290;2024-03-06T13:37:32;9.50;99.90
73955;DHT22;62306;52.516;13.290;2024-03-06T13:40:01;9.60;99.90
73955;DHT22;62306;52.516;13.290;2024-03-06T13:42:28;9.50;99.90
73955;DHT22;62306;52.516;13.290;2024-03-06T13:44:56;9.60;99.90
73955;DHT22;62306;52.516;13.290;2024-03-06T13:47:22;9.50;99.90
73955;DHT22;62306;52.516;13.290;2024-03-06T13:49:49;9.50;99.90
73955;DHT22;62306;52.516;13.290;2024-03-06T13:52:16;9.30;99.90
73955;DHT22;62306;52.516;13.290;2024-03-06T13:54:46;9.20;99.90
73955;DHT22;62306;52.516;13.290;2024-03-06T13:57:15;9.20;99.90
73955;DHT22;62306;52.516;13.290;2024-03-06T13:59:42;9.30;99.90
73955;DHT22;62306;52.516;13.290;2024-03-06T14:02:09;9.30;99.90
73955;DHT22;62306;52.516;13.290;2024-03-06T14:04:36;9.40;99.90
73955;DHT22;62306;52.516;13.290;2024-03-06T14:07:03;9.40;99.70
73955;DHT22;62306;52.516;13.290;2024-03-06T14:09:30;9.40;99.90
73955;DHT22;62306;52.516;13.290;2024-03-06T14:11:57;9.30;99.10
73955;DHT22;62306;52.516;13.290;2024-03-06T14:14:26;9.00;99.50
73955;DHT22;62306;52.516;13.290;2024-03-06T14:16:53;8.90;99.30
73955;DHT22;62306;52.516;13.290;2024-03-06T14:19:19;8.90;99.50
73955;DHT22;62306;52.516;13.290;2024-03-06T14:21:47;8.90;99.10
73955;DHT22;62306;52.516;13.290;2024-03-06T14:24:14;8.90;98.90
73955;DHT22;62306;52.516;13.290;2024-03-06T14:26:41;8.90;98.50
73955;DHT22;62306;52.516;13.290;2024-03-06T14:29:08;8.90;98.70
73955;DHT22;62306;52.516;13.290;2024-03-06T14:31:36;8.90;98.20
73955;DHT22;62306;52.516;13.290;2024-03-06T14:34:03;8.80;98.30
73955;DHT22;62306;52.516;13.290;2024-03-06T14:36:30;8.80;98.80
73955;DHT22;62306;52.516;13.290;2024-03-06T14:38:57;8.80;98.80
73955;DHT22;62306;52.516;13.290;2024-03-06T14:41:24;8.70;99.20
73955;DHT22;62306;52.516;13.290;2024-03-06T14:43:51;8.70;99.00
73955;DHT22;62306;52.516;13.290;2024-03-06T14:46:19;8.50;99.30
73955;DHT22;62306;52.516;13.290;2024-03-06T14:48:48;8.40;99.90
73955;DHT22;62306;52.516;13.290;2024-03-06T14:51:14;8.50;99.90
73955;DHT22;62306;52.516;13.290;2024-03-06T14:53:42;8.40;99.90
73955;DHT22;62306;52.516;13.290;2024-03-06T14:56:09;8.40;99.90
73955;DHT22;62306;52.516;13.290;2024-03-06T14:58:36;8.30;99.90
73955;DHT22;62306;52.516;13.290;2024-03-06T15:01:04;8.30;99.90
73955;DHT22;62306;52.516;13.290;2024-03-06T15:03:31;8.20;99.90
73955;DHT22;62306;52.516;13.290;2024-03-06T15:06:00;8.30;99.90
73955;DHT22;62306;52.516;13.290;2024-03-06T15:08:26;8.40;99.90
73955;DHT22;62306;52.516;13.290;2024-03-06T15:10:54;8.50;99.90
73955;DHT22;62306;52.516;13.290;2024-03-06T15:13:22;8.50;99.90
73955;DHT22;62306;52.516;13.290;2024-03-06T15:15:51;8.60;99.90
73955;DHT22;62306;52.516;13.290;2024-03-06T15:18:18;8.70;99.90
73955;DHT22;62306;52.516;13.290;2024-03-06T15:20:45;8.60;99.90
73955;DHT22;62306;52.516;13.290;2024-03-06T15:23:13;8.60;99.90
73955;DHT22;62306;52.516;13.290;2024-03-06T15:25:40;8.50;99.50
73955;DHT22;62306;52.516;13.290;2024-03-06T15:28:09;8.40;99.30
73955;DHT22;62306;52.516;13.290;2024-03-06T15:30:36;8.40;99.50
73955;DHT22;62306;52.516;13.290;2024-03-06T15:33:04;8.50;99.70